Time;durP1;ratioP1;P1;durP2;ratioP2;P2;SDS_P1;SDS_P2;PMS_P1;PMS_P2;Temp;Humidity;BMP_temperature;BMP_pressure;BME280_temperature;BME280_humidity;BME280_pressure;Samples;Min_cycle;Max_cycle;Signal;HPM_P1;HPM_P2
2023/06/29 00:00:34;;;;;;;4.30;1.80;;;;;;;15.54;100.00;100109.10;105715;1253;72800;-41
2023/06/29 00:03:02;;;;;;;5.60;2.00;;;;;;;15.52;100.00;100123.40;105858;1253;64097;-43
2023/06/29 00:05:30;;;;;;;5.30;2.30;;;;;;;15.51;100.00;100129.00;105701;1253;71524;-43
2023/06/29 00:07:59;;;;;;;6.40;2.50;;;;;;;15.50;100.00;100130.79;105683;1253;60486;-43
2023/06/29 00:10:28;;;;;;;3.00;2.00;;;;;;;15.49;100.00;100132.73;105744;1253;60325;-44
2023/06/29 00:12:57;;;;;;;4.10;2.30;;;;;;;15.48;100.00;100140.48;105707;1253;72599;-44
2023/06/29 00:15:24;;;;;;;4.90;2.20;;;;;;;15.46;100.00;100143.83;105718;1257;63937;-41
2023/06/29 00:17:54;;;;;;;2.50;2.30;;;;;;;15.45;100.00;100148.58;105710;1253;72644;-41
2023/06/29 00:20:24;;;;;;;3.00;2.50;;;;;;;15.43;100.00;100148.86;105692;1253;60404;-42
2023/06/29 00:22:51;;;;;;;10.10;2.40;;;;;;;15.41;100.00;100146.00;105742;1257;60409;-43
2023/06/29 00:25:19;;;;;;;2.20;2.10;;;;;;;15.38;100.00;100147.13;105694;1251;72652;-43
2023/06/29 00:27:47;;;;;;;8.10;2.30;;;;;;;15.37;100.00;100149.29;105675;1252;63378;-41
2023/06/29 00:30:15;;;;;;;4.80;2.50;;;;;;;15.35;100.00;100153.52;105870;1253;71438;-44
2023/06/29 00:32:43;;;;;;;4.80;2.60;;;;;;;15.34;100.00;100160.40;105772;1253;60425;-43
2023/06/29 00:35:12;;;;;;;3.10;2.00;;;;;;;15.32;100.00;100160.81;105745;1257;60352;-41
2023/06/29 00:37:42;;;;;;;2.80;2.50;;;;;;;15.31;100.00;100168.68;105735;1255;73797;-44
2023/06/29 00:40:10;;;;;;;5.90;2.30;;;;;;;15.29;100.00;100173.61;105748;1254;64054;-44
2023/06/29 00:42:38;;;;;;;2.50;2.10;;;;;;;15.28;100.00;100179.91;105702;1255;71688;-42
2023/06/29 00:45:06;;;;;;;2.90;2.40;;;;;;;15.28;100.00;100185.64;105666;1254;60432;-44
2023/06/29 00:47:36;;;;;;;3.80;2.40;;;;;;;15.28;100.00;100196.62;105727;1251;59752;-42
2023/06/29 00:50:05;;;;;;;3.30;2.40;;;;;;;15.26;100.00;100193.20;105703;1253;72573;-43
2023/06/29 00:52:33;;;;;;;3.00;2.00;;;;;;;15.24;100.00;100194.32;105733;1253;65268;-41
2023/06/29 00:55:01;;;;;;;7.10;2.40;;;;;;;15.21;100.00;100193.20;105723;1254;72639;-42
2023/06/29 00:57:32;;;;;;;5.20;2.80;;;;;;;15.19;100.00;100199.74;105683;1254;60491;-42
2023/06/29 01:00:00;;;;;;;9.10;2.40;;;;;;;15.16;100.00;100201.11;105649;1258;60444;-44
2023/06/29 01:39:53;;;;;;;5.30;2.20;;;;;;;14.79;100.00;100281.62;102778;1292;600637;-42
2023/06/29 01:42:21;;;;;;;4.00;2.60;;;;;;;14.72;100.00;100277.02;104851;1269;60007;-43
2023/06/29 01:44:48;;;;;;;6.30;2.40;;;;;;;14.66;100.00;100283.80;104815;1270;59258;-41
2023/06/29 01:47:17;;;;;;;2.70;2.40;;;;;;;14.61;100.00;100283.45;104846;1265;70955;-43
2023/06/29 01:49:44;;;;;;;5.30;2.50;;;;;;;14.56;100.00;100285.77;104899;1267;63445;-41
2023/06/29 01:52:12;;;;;;;4.20;2.70;;;;;;;14.49;100.00;100289.82;104860;1270;71491;-41
2023/06/29 01:54:40;;;;;;;5.10;2.70;;;;;;;14.41;100.00;100294.29;105003;1267;213214;-42
2023/06/29 01:57:08;;;;;;;4.00;2.60;;;;;;;14.37;100.00;100299.98;105050;1268;59251;-41
2023/06/29 01:59:35;;;;;;;6.70;2.60;;;;;;;14.33;100.00;100304.48;105001;1263;70970;-42
2023/06/29 02:02:04;;;;;;;5.00;2.60;;;;;;;14.29;100.00;100304.62;104849;1269;63179;-42
2023/06/29 02:04:32;;;;;;;3.40;2.40;;;;;;;14.26;100.00;100307.34;105184;1264;71748;-42
2023/06/29 02:07:00;;;;;;;12.50;2.60;;;;;;;14.25;100.00;100309.46;105183;1267;60414;-44
2023/06/29 02:09:29;;;;;;;3.60;2.40;;;;;;;14.21;100.00;100312.70;105290;1263;59532;-44
2023/06/29 02:11:56;;;;;;;4.00;2.80;;;;;;;14.17;100.00;100315.29;105190;1262;71822;-43
2023/06/29 02:14:24;;;;;;;4.50;2.90;;;;;;;14.12;100.00;100315.80;105603;1258;65380;-41
2023/06/29 02:16:52;;;;;;;5.00;2.60;;;;;;;14.08;100.00;100312.11;105524;1257;70474;-42
2023/06/29 02:19:19;;;;;;;6.30;2.80;;;;;;;14.05;100.00;100310.17;105604;1256;61667;-44
2023/06/29 02:21:47;;;;;;;8.80;2.90;;;;;;;14.02;100.00;100306.09;105583;1258;59546;-42
2023/06/29 02:24:15;;;;;;;8.00;2.90;;;;;;;14.01;100.00;100313.21;105593;1257;71834;-41
2023/06/29 02:26:43;;;;;;;3.10;2.80;;;;;;;14.00;100.00;100308.05;105621;1260;64075;-44
2023/06/29 02:29:11;;;;;;;4.40;2.70;;;;;;;14.00;100.00;100304.27;105626;1260;72649;-42
2023/06/29 02:31:39;;;;;;;5.30;3.40;;;;;;;13.99;100.00;100299.25;105585;1261;60244;-45
2023/06/29 02:34:07;;;;;;;3.80;2.90;;;;;;;13.98;100.00;100300.66;105540;1262;59628;-41
2023/06/29 02:36:34;;;;;;;7.40;2.70;;;;;;;14.00;100.00;100296.98;105472;1263;73172;-42
2023/06/29 02:39:04;;;;;;;3.60;3.00;;;;;;;14.01;100.00;100292.59;105484;1258;63962;-43
2023/06/29 02:41:32;;;;;;;4.00;2.70;;;;;;;14.01;100.00;100285.30;105588;1260;71726;-42
2023/06/29 02:44:00;;;;;;;6.90;3.00;;;;;;;14.01;100.00;100274.20;105500;1262;59809;-43
2023/06/29 02:46:29;;;;;;;5.80;2.60;;;;;;;14.02;100.00;100275.02;105467;1260;60007;-42
2023/06/29 02:48:57;;;;;;;6.00;2.80;;;;;;;14.05;100.00;100278.59;105596;1263;73060;-44
2023/06/29 02:51:25;;;;;;;4.70;2.80;;;;;;;14.09;100.00;100274.63;105509;1258;63928;-44
2023/06/29 02:53:57;;;;;;;11.70;2.70;;;;;;;14.12;100.00;100272.09;105517;1260;71436;-45
2023/06/29 02:56:25;;;;;;;4.90;3.20;;;;;;;14.16;100.00;100271.60;105496;1260;61669;-44
2023/06/29 02:58:54;;;;;;;13.30;2.90;;;;;;;14.20;100.00;100275.11;105671;1260;59619;-42
2023/06/29 03:01:24;;;;;;;11.00;2.70;;;;;;;14.23;100.00;100274.64;105482;1261;71372;-41
2023/06/29 03:03:53;;;;;;;3.80;2.40;;;;;;;14.27;100.00;100279.00;105490;1262;65214;-43
2023/06/29 03:06:21;;;;;;;4.20;2.40;;;;;;;14.31;100.00;100280.60;105542;1261;71456;-44
2023/06/29 03:08:49;;;;;;;7.10;2.90;;;;;;;14.34;100.00;100281.69;105596;1257;59629;-44
2023/06/29 03:11:17;;;;;;;3.20;2.90;;;;;;;14.40;100.00;100282.20;105552;1271;60078;-42
2023/06/29 03:13:46;;;;;;;7.70;2.90;;;;;;;14.46;100.00;100285.43;105562;1258;72983;-43
2023/06/29 03:18:27;;;;;;;7.60;2.80;;;;;;;14.62;100.00;100323.71;102756;1293;601068;-42
2023/06/29 03:20:55;;;;;;;7.70;2.70;;;;;;;14.68;100.00;100305.80;105191;1265;60455;-44
2023/06/29 03:23:22;;;;;;;6.20;2.60;;;;;;;14.75;100.00;100305.39;105186;1265;59813;-41
2023/06/29 03:25:50;;;;;;;5.40;3.30;;;;;;;14.79;100.00;100302.29;105197;1260;71017;-43
2023/06/29 03:28:18;;;;;;;3.30;2.70;;;;;;;14.82;100.00;100296.95;105159;1265;65253;-42
2023/06/29 03:30:45;;;;;;;5.60;2.90;;;;;;;14.84;100.00;100299.48;105105;1263;71347;-44
2023/06/29 03:33:13;;;;;;;4.30;3.00;;;;;;;14.88;100.00;100297.60;104890;1264;490071;-42
2023/06/29 03:35:41;;;;;;;4.40;2.50;;;;;;;14.93;100.00;100301.56;105185;1263;59286;-44
2023/06/29 03:38:09;;;;;;;4.00;2.40;;;;;;;15.01;100.00;100298.48;105176;1261;71623;-44
2023/06/29 03:40:37;;;;;;;9.60;2.30;;;;;;;15.12;100.00;100294.95;105225;1260;64442;-42
2023/06/29 03:43:05;;;;;;;7.20;3.00;;;;;;;15.30;100.00;100292.27;105183;1265;72590;-41
2023/06/29 03:45:33;;;;;;;3.20;2.50;;;;;;;15.56;100.00;100288.65;105258;1264;59743;-42
2023/06/29 03:48:01;;;;;;;2.80;2.30;;;;;;;15.85;100.00;100284.09;105266;1265;59664;-44
2023/06/29 03:50:29;;;;;;;3.70;1.90;;;;;;;16.13;100.00;100265.54;105250;1260;71755;-43
2023/06/29 03:52:56;;;;;;;5.60;2.40;;;;;;;16.39;100.00;100232.30;105208;1260;64000;-44
2023/06/29 03:55:24;;;;;;;3.40;2.00;;;;;;;16.65;100.00;100183.71;105203;1262;71440;-42
2023/06/29 03:57:54;;;;;;;2.90;2.40;;;;;;;16.88;100.00;100095.33;105188;1263;59666;-42
2023/06/29 04:00:22;;;;;;;6.00;2.20;;;;;;;17.03;100.00;99928.14;105240;1265;59650;-42
2023/06/29 04:02:50;;;;;;;3.50;2.30;;;;;;;17.16;100.00;99781.53;105189;1260;71742;-42
2023/06/29 04:05:18;;;;;;;4.90;1.60;;;;;;;17.29;100.00;99705.00;105225;1265;63982;-43
2023/06/29 04:07:45;;;;;;;4.80;1.90;;;;;;;17.43;100.00;99653.75;105228;1261;72642;-45
2023/06/29 04:10:13;;;;;;;2.40;1.80;;;;;;;17.53;100.00;99612.89;105234;1265;59721;-43
2023/06/29 04:12:41;;;;;;;5.90;1.80;;;;;;;17.62;100.00;99597.85;105708;1256;59586;-41
2023/06/29 04:15:09;;;;;;;3.60;2.00;;;;;;;17.71;100.00;99597.67;105757;1253;71555;-46
2023/06/29 04:17:37;;;;;;;3.00;2.30;;;;;;;17.80;100.00;99607.04;105723;1257;65323;-42
2023/06/29 04:20:05;;;;;;;2.10;1.70;;;;;;;17.79;100.00;99620.90;105685;1257;71095;-42
2023/06/29 04:22:33;;;;;;;4.20;1.60;;;;;;;17.92;100.00;99623.44;105712;1253;60011;-43
2023/06/29 04:25:01;;;;;;;3.90;2.00;;;;;;;17.97;100.00;99637.10;105688;1253;59989;-41
2023/06/29 04:27:31;;;;;;;5.30;1.90;;;;;;;18.01;100.00;99640.37;105703;1252;71935;-44
2023/06/29 04:30:01;;;;;;;5.50;1.70;;;;;;;18.09;100.00;99631.83;105739;1254;64081;-44
2023/06/29 04:32:29;;;;;;;2.50;1.80;;;;;;;18.21;100.00;99633.17;105752;1253;71087;-44
2023/06/29 04:34:59;;;;;;;2.30;2.00;;;;;;;18.33;100.00;99639.56;105739;1257;59795;-44
2023/06/29 04:37:36;;;;;;;2.30;1.90;;;;;;;18.47;100.00;99654.58;105709;1253;59694;-43
2023/06/29 04:40:05;;;;;;;4.90;1.60;;;;;;;18.58;100.00;99672.77;105744;1257;71273;-44
2023/06/29 04:42:33;;;;;;;1.90;1.70;;;;;;;18.65;100.00;99685.41;105740;1255;65151;-43
2023/06/29 04:45:00;;;;;;;5.00;1.90;;;;;;;18.72;100.00;99682.91;105883;1257;72052;-42
2023/06/29 04:47:32;;;;;;;5.40;1.60;;;;;;;18.81;100.00;99690.34;105675;1253;60019;-44
2023/06/29 04:49:59;;;;;;;1.90;1.70;;;;;;;18.96;100.00;99690.05;105687;1257;59817;-41
2023/06/29 04:52:27;;;;;;;7.80;1.90;;;;;;;19.06;100.00;99711.09;105702;1253;71843;-41
2023/06/29 05:40:27;;;;;;;12.50;1.90;;;;;;;20.48;100.00;99846.24;102956;1288;600024;-46
2023/06/29 05:42:55;;;;;;;12.70;1.90;;;;;;;20.52;100.00;99846.98;105219;1266;60012;-45
2023/06/29 05:45:23;;;;;;;13.00;1.70;;;;;;;20.65;100.00;99834.52;105146;1270;59264;-41
2023/06/29 05:47:50;;;;;;;5.10;1.80;;;;;;;20.81;100.00;99826.80;105039;1269;72236;-44
2023/06/29 05:50:20;;;;;;;12.70;2.10;;;;;;;20.92;100.00;99829.00;105081;1270;65465;-41
2023/06/29 05:52:48;;;;;;;3.40;1.80;;;;;;;21.00;100.00;99819.47;105071;1267;71482;-41
2023/06/29 05:55:19;;;;;;;5.10;1.70;;;;;;;20.95;100.00;99832.64;104642;1267;802189;-44
2023/06/29 05:57:47;;;;;;;4.40;1.60;;;;;;;20.85;100.00;99822.30;105171;1262;59870;-47
2023/06/29 06:00:15;;;;;;;7.80;1.90;;;;;;;20.76;100.00;99833.73;105216;1264;71042;-44
2023/06/29 06:02:44;;;;;;;6.00;1.70;;;;;;;20.73;100.00;99840.11;105249;1264;65267;-41
2023/06/29 06:05:12;;;;;;;3.80;2.10;;;;;;;20.84;100.00;99834.45;105249;1264;71422;-41
2023/06/29 06:07:40;;;;;;;5.90;2.20;;;;;;;20.83;100.00;99830.33;105232;1263;60050;-43
2023/06/29 06:10:08;;;;;;;11.70;2.60;;;;;;;20.78;100.00;99829.45;105212;1264;60074;-44
2023/06/29 06:12:36;;;;;;;3.00;1.90;;;;;;;20.70;100.00;99853.65;105275;1266;72050;-44
2023/06/29 06:15:05;;;;;;;4.80;1.90;;;;;;;20.79;100.00;99836.88;105198;1266;65242;-43
2023/06/29 06:17:33;;;;;;;3.10;1.70;;;;;;;21.01;100.00;99827.48;105245;1263;72693;-44
2023/06/29 06:20:01;;;;;;;3.30;1.70;;;;;;;21.17;100.00;99825.64;105201;1263;60172;-43
2023/06/29 06:22:29;;;;;;;9.20;2.20;;;;;;;21.25;100.00;99808.38;105226;1264;59672;-45
2023/06/29 06:24:56;;;;;;;2.80;1.80;;;;;;;21.18;100.00;99827.08;105223;1264;72275;-45
2023/06/29 06:27:24;;;;;;;2.70;1.80;;;;;;;21.12;99.31;99804.91;105172;1264;64869;-45
2023/06/29 06:29:52;;;;;;;6.00;2.20;;;;;;;20.91;100.00;99838.15;105184;1267;71394;-42
2023/06/29 06:32:21;;;;;;;2.90;1.90;;;;;;;20.94;100.00;99845.52;105184;1264;59743;-44
2023/06/29 06:34:50;;;;;;;6.20;2.10;;;;;;;21.02;100.00;99828.98;105205;1266;59552;-44
2023/06/29 06:37:18;;;;;;;4.30;1.90;;;;;;;21.00;100.00;99813.20;105162;1264;71711;-44
2023/06/29 06:39:46;;;;;;;16.20;2.30;;;;;;;20.79;100.00;99821.65;105198;1264;65279;-43
2023/06/29 06:42:14;;;;;;;10.30;2.10;;;;;;;20.65;100.00;99818.41;105105;1264;71493;-44
2023/06/29 06:44:50;;;;;;;4.00;1.90;;;;;;;20.52;100.00;99838.57;105158;1264;59720;-42
2023/06/29 06:47:18;;;;;;;2.80;2.00;;;;;;;20.48;100.00;99833.23;105217;1264;60021;-43
2023/06/29 06:49:47;;;;;;;2.30;2.10;;;;;;;20.55;100.00;99825.73;105175;1264;71825;-43
2023/06/29 06:52:15;;;;;;;10.40;2.10;;;;;;;20.59;100.00;99816.70;105139;1269;64380;-45
2023/06/29 06:54:42;;;;;;;6.10;2.20;;;;;;;20.55;100.00;99816.80;105128;1267;71430;-44
2023/06/29 06:57:10;;;;;;;3.90;1.90;;;;;;;20.57;100.00;99811.97;105140;1264;59725;-44
2023/06/29 06:59:38;;;;;;;7.50;2.10;;;;;;;20.67;100.00;99811.45;105180;1264;59572;-45
2023/06/29 07:02:06;;;;;;;6.80;2.00;;;;;;;20.77;100.00;99811.99;105088;1264;72984;-41
2023/06/29 07:04:34;;;;;;;9.40;2.10;;;;;;;20.85;100.00;99800.76;105199;1263;65233;-45
2023/06/29 07:07:03;;;;;;;11.40;1.90;;;;;;;20.91;99.28;99786.42;105121;1265;71606;-45
2023/06/29 07:09:31;;;;;;;14.10;2.00;;;;;;;20.97;99.43;99795.98;105180;1269;60085;-43
2023/06/29 07:11:59;;;;;;;4.40;2.20;;;;;;;21.06;94.94;99789.25;105172;1264;59570;-42
2023/06/29 07:14:27;;;;;;;3.60;1.80;;;;;;;21.08;87.30;99776.41;105141;1263;71795;-45
2023/06/29 07:16:55;;;;;;;9.30;2.00;;;;;;;21.02;87.02;99790.23;105145;1264;64078;-43
2023/06/29 07:19:24;;;;;;;7.70;1.90;;;;;;;21.03;94.56;99810.86;105134;1264;72651;-44
2023/06/29 07:21:54;;;;;;;11.20;2.00;;;;;;;21.10;99.19;99811.95;105152;1267;59743;-44
2023/06/29 07:24:25;;;;;;;22.60;2.90;;;;;;;21.18;97.20;99800.63;105157;1267;59577;-44
2023/06/29 07:26:53;;;;;;;16.90;2.30;;;;;;;21.20;94.27;99796.77;105162;1264;73053;-43
2023/06/29 07:29:21;;;;;;;7.00;1.90;;;;;;;21.20;84.78;99778.36;105825;1254;64000;-45
2023/06/29 07:31:49;;;;;;;22.70;2.50;;;;;;;21.24;81.97;99780.01;105883;1255;71447;-42
2023/06/29 07:34:22;;;;;;;9.60;2.10;;;;;;;21.35;85.74;99802.36;105819;1254;59812;-43
2023/06/29 07:36:51;;;;;;;5.00;1.60;;;;;;;21.56;73.91;99733.82;105872;1256;61713;-43
2023/06/29 07:39:19;;;;;;;19.70;3.20;;;;;;;21.52;68.91;99704.45;105871;1257;71410;-44
2023/06/29 07:41:48;;;;;;;10.50;2.00;;;;;;;21.51;72.46;99783.83;105876;1253;63883;-43
2023/06/29 07:44:15;;;;;;;8.70;1.60;;;;;;;21.57;70.04;99753.89;105843;1254;71608;-45
2023/06/29 07:46:43;;;;;;;1.80;1.40;;;;;;;21.55;72.10;99797.55;105880;1253;59711;-43
2023/06/29 07:49:11;;;;;;;3.50;1.90;;;;;;;21.72;71.93;99787.17;105798;1257;59538;-42
2023/06/29 07:51:39;;;;;;;10.80;1.60;;;;;;;21.82;70.68;99775.73;105948;1254;73036;-42
2023/06/29 07:54:08;;;;;;;53.00;3.30;;;;;;;21.87;70.94;99779.93;105978;1254;64319;-42
2023/06/29 07:56:36;;;;;;;9.20;1.70;;;;;;;22.02;69.90;99763.30;105833;1257;72632;-42
2023/06/29 07:59:06;;;;;;;5.40;1.60;;;;;;;22.24;71.28;99792.23;105838;1256;59714;-42
2023/06/29 08:01:36;;;;;;;7.70;2.10;;;;;;;22.52;67.62;99730.47;105799;1254;59615;-44
2023/06/29 08:04:06;;;;;;;7.50;1.60;;;;;;;22.55;66.93;99731.63;105930;1257;73283;-42
2023/06/29 08:06:35;;;;;;;6.50;1.60;;;;;;;22.40;64.67;99695.56;105903;1257;63924;-45
2023/06/29 08:09:06;;;;;;;12.10;1.60;;;;;;;22.20;66.98;99775.10;105793;1254;72623;-43
2023/06/29 08:11:34;;;;;;;2.40;1.40;;;;;;;22.23;68.36;99801.79;105859;1253;59975;-42
2023/06/29 08:14:02;;;;;;;3.60;1.40;;;;;;;22.20;67.40;99777.88;105912;1256;60719;-43
2023/06/29 08:16:30;;;;;;;5.10;1.30;;;;;;;22.21;67.38;99779.27;105799;1257;71553;-44
2023/06/29 08:18:59;;;;;;;7.90;1.40;;;;;;;22.18;65.36;99751.05;105941;1257;65253;-46
2023/06/29 08:21:26;;;;;;;8.30;1.40;;;;;;;21.99;63.82;99726.65;105852;1257;71319;-45
2023/06/29 08:23:54;;;;;;;6.90;1.20;;;;;;;21.76;65.17;99784.08;105894;1257;59716;-44
2023/06/29 08:26:24;;;;;;;11.60;1.30;;;;;;;21.59;65.38;99789.90;105800;1254;60027;-45
2023/06/29 08:28:52;;;;;;;15.80;2.40;;;;;;;21.42;66.88;99829.98;105823;1254;72981;-42
2023/06/29 08:31:20;;;;;;;9.40;1.60;;;;;;;21.33;68.48;99835.89;105833;1256;63993;-44
2023/06/29 08:33:49;;;;;;;40.10;3.20;;;;;;;21.26;67.78;99809.17;105935;1253;71424;-42
2023/06/29 08:36:17;;;;;;;10.30;1.40;;;;;;;21.19;69.48;99834.27;105859;1254;59742;-43
2023/06/29 08:38:48;;;;;;;2.20;1.10;;;;;;;21.17;69.24;99817.22;105891;1256;59605;-42
2023/06/29 08:41:16;;;;;;;6.70;0.90;;;;;;;21.11;71.19;99830.99;105912;1254;71583;-45
2023/06/29 08:43:45;;;;;;;10.00;1.10;;;;;;;21.11;71.34;99823.63;105912;1253;64127;-44
2023/06/29 08:46:13;;;;;;;2.90;0.80;;;;;;;21.08;73.22;99829.79;105825;1254;71406;-45
2023/06/29 08:48:43;;;;;;;7.50;1.10;;;;;;;21.02;75.84;99842.29;105920;1253;59762;-44
2023/06/29 08:51:10;;;;;;;6.40;1.30;;;;;;;21.01;76.28;99829.08;105932;1257;59791;-44
2023/06/29 08:53:41;;;;;;;10.00;1.40;;;;;;;20.93;82.29;99849.42;105709;1254;71818;-44
2023/06/29 08:56:09;;;;;;;6.20;0.80;;;;;;;20.97;96.58;99861.80;105724;1255;64047;-43
2023/06/29 08:58:38;;;;;;;7.20;1.10;;;;;;;20.99;97.07;99844.13;105771;1254;71384;-45
2023/06/29 09:01:06;;;;;;;3.00;1.00;;;;;;;20.90;94.43;99834.71;105907;1253;62351;-42
2023/06/29 09:03:35;;;;;;;4.20;1.00;;;;;;;20.74;99.81;99846.37;105782;1253;59611;-42
2023/06/29 09:06:03;;;;;;;6.80;1.10;;;;;;;20.56;100.00;99850.04;105950;1254;72944;-45
2023/06/29 09:08:34;;;;;;;7.90;1.00;;;;;;;20.46;100.00;99856.85;105876;1254;64220;-43
2023/06/29 09:11:02;;;;;;;8.10;1.20;;;;;;;20.39;100.00;99846.46;105835;1254;71370;-45
2023/06/29 09:13:33;;;;;;;3.70;1.00;;;;;;;20.36;100.00;99847.71;105874;1254;59722;-44
2023/06/29 09:16:01;;;;;;;5.20;0.90;;;;;;;20.39;100.00;99845.41;105856;1257;59621;-44
2023/06/29 09:18:29;;;;;;;1.90;0.90;;;;;;;20.40;100.00;99834.65;105950;1254;74874;-45
2023/06/29 09:20:57;;;;;;;2.90;1.10;;;;;;;20.40;100.00;99827.36;105773;1254;64308;-44
2023/06/29 09:23:25;;;;;;;5.10;1.00;;;;;;;20.33;100.00;99847.98;105913;1254;71460;-42
2023/06/29 09:25:54;;;;;;;5.20;1.10;;;;;;;20.32;100.00;99844.70;105906;1252;59723;-42
2023/06/29 09:28:22;;;;;;;1.50;0.90;;;;;;;20.39;100.00;99837.23;105750;1254;60078;-43
2023/06/29 09:30:49;;;;;;;1.00;0.80;;;;;;;20.47;100.00;99817.92;105818;1253;73009;-44
2023/06/29 09:33:19;;;;;;;1.30;1.10;;;;;;;20.51;100.00;99812.70;105948;1254;67096;-45
2023/06/29 09:35:48;;;;;;;1.00;0.80;;;;;;;20.50;100.00;99816.49;105712;1254;71063;-44
2023/06/29 09:38:16;;;;;;;3.10;0.70;;;;;;;20.40;100.00;99811.90;105945;1256;60075;-43
2023/06/29 09:40:48;;;;;;;1.10;1.00;;;;;;;20.23;100.00;99821.28;105763;1253;60162;-44
2023/06/29 09:43:17;;;;;;;2.10;1.00;;;;;;;20.03;100.00;99827.57;105947;1254;71823;-41
2023/06/29 09:45:45;;;;;;;3.10;1.50;;;;;;;19.86;100.00;99829.25;105936;1254;65050;-44
2023/06/29 09:48:13;;;;;;;3.40;1.00;;;;;;;19.68;100.00;99821.32;105880;1257;71381;-44
2023/06/29 09:50:53;;;;;;;9.00;1.30;;;;;;;19.55;100.00;99811.81;105903;1253;60482;-44
2023/06/29 09:53:31;;;;;;;4.70;0.90;;;;;;;19.44;100.00;99794.70;105901;1254;60322;-41
2023/06/29 09:55:59;;;;;;;1.40;1.00;;;;;;;19.41;100.00;99770.75;105814;1254;73875;-42
2023/06/29 09:58:30;;;;;;;4.00;0.80;;;;;;;19.44;100.00;99753.77;106052;1254;63971;-41
2023/06/29 10:00:59;;;;;;;3.30;0.80;;;;;;;19.54;100.00;99745.03;105776;1257;71021;-41
2023/06/29 10:03:27;;;;;;;11.20;1.40;;;;;;;19.72;100.00;99731.77;105817;1257;60491;-42
2023/06/29 10:05:57;;;;;;;11.90;1.10;;;;;;;20.01;100.00;99721.25;105689;1254;60588;-44
2023/06/29 10:08:27;;;;;;;104.80;6.80;;;;;;;20.37;100.00;99721.02;105932;1254;72558;-41
2023/06/29 10:11:00;;;;;;;47.30;3.20;;;;;;;20.66;100.00;99728.39;105888;1254;65102;-44
2023/06/29 10:13:30;;;;;;;;;;;;;;;20.89;100.00;99741.89;105784;1254;71384;-43
2023/06/29 10:15:58;;;;;;;32.80;2.40;;;;;;;21.05;100.00;99744.05;105883;1254;60434;-42
2023/06/29 10:18:31;;;;;;;30.70;2.90;;;;;;;21.21;100.00;99760.05;105687;1252;60432;-44
2023/06/29 10:20:59;;;;;;;69.60;4.40;;;;;;;21.55;100.00;99752.48;105871;1254;72474;-42
2023/06/29 10:23:26;;;;;;;31.40;3.50;;;;;;;21.94;100.00;99741.42;105689;1255;64118;-43
2023/06/29 10:25:54;;;;;;;18.70;1.60;;;;;;;22.23;94.75;99717.59;105669;1257;72171;-45
2023/06/29 10:28:22;;;;;;;29.60;2.20;;;;;;;22.38;95.58;99738.42;105905;1253;60479;-44
2023/06/29 10:30:56;;;;;;;27.50;2.70;;;;;;;22.53;76.38;99675.54;105722;1253;60597;-42
2023/06/29 10:33:24;;;;;;;28.30;2.10;;;;;;;22.48;76.98;99714.43;105746;1257;73839;-42
2023/06/29 10:35:55;;;;;;;17.10;1.20;;;;;;;22.56;74.48;99708.52;105892;1252;63653;-45
2023/06/29 10:38:32;;;;;;;2.10;0.90;;;;;;;22.81;75.29;99716.40;105823;1254;72664;-45
2023/06/29 10:41:01;;;;;;;12.10;1.20;;;;;;;23.18;65.10;99567.81;105928;1257;60497;-42
2023/06/29 10:43:28;;;;;;;28.40;2.00;;;;;;;23.10;64.05;99609.36;105913;1256;60805;-46
2023/06/29 10:45:56;;;;;;;9.00;1.10;;;;;;;22.88;64.22;99646.18;105587;1261;73577;-43
2023/06/29 10:48:24;;;;;;;21.40;1.40;;;;;;;22.72;64.13;99661.68;105627;1258;65600;-45
2023/06/29 10:51:13;;;;;;;38.20;2.60;;;;;;;22.66;66.00;99706.32;105660;1254;73573;-44
2023/06/29 10:53:41;;;;;;;21.40;2.00;;;;;;;22.79;64.15;99671.35;105927;1257;60450;-43
2023/06/29 10:56:27;;;;;;;12.00;1.20;;;;;;;22.79;64.24;99683.96;105753;1258;60515;-43
2023/06/29 10:58:55;;;;;;;;;;;;;;;22.92;63.33;99665.38;105780;1255;72650;-45
2023/06/29 11:01:24;;;;;;;21.80;1.20;;;;;;;22.81;61.64;99626.89;105773;1257;65739;-45
2023/06/29 11:03:52;;;;;;;23.40;1.80;;;;;;;22.72;63.21;99689.83;105923;1254;73086;-44
2023/06/29 11:06:20;;;;;;;20.10;1.30;;;;;;;22.88;63.86;99707.03;105896;1256;60459;-43
2023/06/29 11:09:12;;;;;;;5.30;0.70;;;;;;;23.12;62.21;99662.66;105858;1254;60454;-44
2023/06/29 11:11:41;;;;;;;1.00;0.40;;;;;;;23.01;61.94;99667.75;105809;1253;72654;-44
2023/06/29 11:14:17;;;;;;;24.80;1.30;;;;;;;22.91;62.68;99704.45;105923;1253;65695;-43
2023/06/29 11:16:44;;;;;;;12.70;1.30;;;;;;;23.03;61.25;99657.06;105899;1254;70947;-44
2023/06/29 11:19:12;;;;;;;20.00;1.00;;;;;;;23.19;61.61;99676.52;105693;1252;60524;-44
2023/06/29 11:21:41;;;;;;;71.10;3.30;;;;;;;23.34;59.80;99609.10;105708;1260;60421;-44
2023/06/29 11:24:10;;;;;;;37.70;1.80;;;;;;;23.30;57.68;99536.08;105908;1252;72062;-42
2023/06/29 11:26:38;;;;;;;30.40;1.90;;;;;;;23.00;58.06;99588.88;105857;1254;64087;-44
2023/06/29 11:29:07;;;;;;;17.10;1.70;;;;;;;22.83;61.15;99716.02;105771;1254;71435;-43
2023/06/29 11:31:34;;;;;;;7.00;0.50;;;;;;;22.86;60.42;99679.23;105910;1254;61107;-45
2023/06/29 11:34:03;;;;;;;16.00;1.30;;;;;;;22.79;61.53;99721.45;105847;1254;60478;-46
2023/06/29 11:36:33;;;;;;;35.00;2.80;;;;;;;22.86;62.30;99732.30;105892;1252;72590;-43
2023/06/29 11:39:04;;;;;;;23.20;2.50;;;;;;;23.13;63.45;99743.86;105898;1256;65386;-42
2023/06/29 11:41:32;;;;;;;51.20;2.60;;;;;;;23.32;60.09;99628.14;105794;1253;72567;-45
2023/06/29 11:44:00;;;;;;;20.00;1.60;;;;;;;23.22;60.45;99664.34;105910;1257;61249;-43
2023/06/29 11:46:35;;;;;;;28.60;2.20;;;;;;;23.13;60.52;99679.85;105696;1254;60370;-46
2023/06/29 11:49:06;;;;;;;;;;;;;;;23.07;59.37;99637.92;105929;1256;73768;-44
2023/06/29 11:51:38;;;;;;;26.90;2.10;;;;;;;23.18;60.86;99696.61;105783;1254;65281;-44
2023/06/29 11:54:07;;;;;;;16.50;1.20;;;;;;;23.38;60.59;99676.70;105729;1254;73138;-44
2023/06/29 11:56:38;;;;;;;38.50;2.50;;;;;;;23.47;61.71;99720.98;105915;1256;60535;-43
2023/06/29 11:59:12;;;;;;;18.40;2.10;;;;;;;23.59;61.47;99698.55;105921;1254;60514;-44
2023/06/29 12:01:39;;;;;;;6.60;1.00;;;;;;;23.66;61.81;99717.86;105909;1257;73669;-45
2023/06/29 12:04:08;;;;;;;18.60;2.10;;;;;;;23.71;62.10;99715.80;105911;1257;65142;-42
2023/06/29 12:06:37;;;;;;;7.20;1.00;;;;;;;23.68;59.75;99632.78;105909;1255;71213;-42
2023/06/29 12:09:12;;;;;;;10.60;1.10;;;;;;;23.34;61.02;99704.36;105736;1254;61224;-45
2023/06/29 12:11:40;;;;;;;12.10;1.20;;;;;;;23.24;60.02;99677.86;105698;1257;60377;-46
2023/06/29 12:14:09;;;;;;;6.10;1.10;;;;;;;23.21;61.26;99719.94;105797;1256;73819;-43
2023/06/29 12:16:39;;;;;;;22.20;2.00;;;;;;;23.22;60.33;99683.98;105784;1257;65283;-43
2023/06/29 12:19:11;;;;;;;37.20;2.60;;;;;;;23.27;61.01;99703.70;105904;1254;72735;-43
2023/06/29 12:21:39;;;;;;;36.20;2.30;;;;;;;23.35;61.93;99724.88;105940;1254;60463;-45
2023/06/29 12:24:09;;;;;;;26.40;2.00;;;;;;;23.43;61.51;99710.95;105917;1256;60340;-43
2023/06/29 12:26:36;;;;;;;9.60;1.20;;;;;;;23.45;61.78;99713.63;105883;1252;72374;-42
2023/06/29 12:29:04;;;;;;;30.30;2.50;;;;;;;23.43;63.72;99753.20;105773;1254;64190;-42
2023/06/29 12:31:33;;;;;;;31.40;2.60;;;;;;;23.60;64.44;99741.61;105694;1259;71422;-45
2023/06/29 12:34:01;;;;;;;70.70;4.10;;;;;;;23.69;63.92;99723.58;105804;1254;60524;-42
2023/06/29 12:36:29;;;;;;;21.60;3.50;;;;;;;23.71;61.06;99656.46;105902;1256;60615;-44
2023/06/29 12:38:56;;;;;;;84.60;5.00;;;;;;;23.66;62.03;99692.98;105695;1254;72616;-44
2023/06/29 12:41:24;;;;;;;35.40;2.40;;;;;;;23.80;61.31;99674.06;105769;1254;65210;-43
2023/06/29 12:43:52;;;;;;;26.30;2.20;;;;;;;23.85;60.24;99647.66;105913;1253;71334;-44
2023/06/29 12:46:23;;;;;;;6.80;1.10;;;;;;;23.95;61.18;99673.84;105926;1257;60538;-43
2023/06/29 12:48:51;;;;;;;30.80;2.20;;;;;;;24.22;59.77;99618.95;105933;1252;60500;-44